Time;durP1;ratioP1;P1;durP2;ratioP2;P2;SDS_P1;SDS_P2;PMS_P1;PMS_P2;Temp;Humidity;BMP_temperature;BMP_pressure;BME280_temperature;BME280_humidity;BME280_pressure;Samples;Min_cycle;Max_cycle;Signal;HPM_P1;HPM_P2
2024/01/20 00:01:22;;;;;;;34.27;12.73;;;;;;;-2.07;100.00;102577.22;4973950;28;20026;-86
2024/01/20 00:03:47;;;;;;;31.90;11.77;;;;;;;-2.06;100.00;102576.44;4977210;28;20060;-86
2024/01/20 00:06:13;;;;;;;32.33;11.07;;;;;;;-2.03;100.00;102576.56;4973919;28;20404;-86
2024/01/20 00:08:41;;;;;;;36.17;12.53;;;;;;;-2.02;100.00;102573.22;4974886;28;20369;-86
2024/01/20 00:11:06;;;;;;;33.10;12.17;;;;;;;-2.01;100.00;102569.03;4983075;28;20028;-87
2024/01/20 00:13:31;;;;;;;35.20;12.30;;;;;;;-1.99;100.00;102575.94;4976402;28;20031;-86
2024/01/20 00:16:04;;;;;;;33.17;11.90;;;;;;;-1.98;100.00;102575.16;4969966;28;20504;-86
2024/01/20 00:18:33;;;;;;;27.77;10.13;;;;;;;-1.99;100.00;102573.41;4973072;28;20538;-86
2024/01/20 00:21:04;;;;;;;32.23;11.80;;;;;;;-1.96;100.00;102576.91;4973306;28;20031;-86
2024/01/20 00:23:29;;;;;;;31.83;11.98;;;;;;;-1.96;100.00;102582.88;4971878;28;20031;-86
2024/01/20 00:26:01;;;;;;;31.07;10.77;;;;;;;-1.95;100.00;102576.13;4958327;28;20033;-86
2024/01/20 00:28:26;;;;;;;31.45;11.38;;;;;;;-1.92;100.00;102579.69;4977240;28;20480;-86
2024/01/20 00:30:52;;;;;;;30.07;10.53;;;;;;;-1.90;100.00;102585.78;4976957;28;20040;-87
2024/01/20 00:33:20;;;;;;;33.50;12.00;;;;;;;-1.90;100.00;102580.66;4967486;28;20030;-87
2024/01/20 00:35:49;;;;;;;33.07;11.43;;;;;;;-1.90;100.00;102578.13;4967294;28;20031;-86
2024/01/20 00:38:14;;;;;;;30.77;11.60;;;;;;;-1.89;100.00;102579.00;4979272;28;20022;-86
2024/01/20 00:40:40;;;;;;;30.17;10.37;;;;;;;-1.89;100.00;102574.78;4964877;28;20030;-86
2024/01/20 00:43:05;;;;;;;31.37;11.50;;;;;;;-1.89;100.00;102564.56;4964827;28;20033;-86
2024/01/20 00:45:34;;;;;;;31.00;10.97;;;;;;;-1.86;100.00;102566.41;4980912;28;20022;-86
2024/01/20 00:48:02;;;;;;;33.67;12.10;;;;;;;-1.87;100.00;102568.09;4982978;28;20039;-86
2024/01/20 00:50:27;;;;;;;31.50;11.63;;;;;;;-1.85;100.00;102568.16;4978074;28;20109;-86
2024/01/20 00:52:53;;;;;;;28.73;11.67;;;;;;;-1.85;100.00;102575.81;4960601;28;20106;-86
2024/01/20 00:55:18;;;;;;;30.90;11.40;;;;;;;-1.85;100.00;102565.59;4960695;28;20089;-86
2024/01/20 00:57:44;;;;;;;27.90;10.53;;;;;;;-1.84;100.00;102567.34;4976550;28;20102;-86
2024/01/20 01:00:10;;;;;;;28.87;10.93;;;;;;;-1.84;100.00;102567.34;4963231;28;20093;-86
2024/01/20 01:02:42;;;;;;;29.80;11.10;;;;;;;-1.83;100.00;102564.91;4969854;28;20132;-86
2024/01/20 01:05:08;;;;;;;27.55;10.02;;;;;;;-1.82;100.00;102560.66;4969165;28;20058;-86
2024/01/20 01:07:37;;;;;;;32.90;10.43;;;;;;;-1.83;100.00;102559.81;4990511;28;20515;-86
2024/01/20 01:10:05;;;;;;;29.47;10.57;;;;;;;-1.81;100.00;102571.78;4987136;28;20088;-86
2024/01/20 01:12:30;;;;;;;30.43;10.20;;;;;;;-1.81;100.00;102572.63;4971900;28;20495;-86
2024/01/20 01:14:56;;;;;;;30.60;11.07;;;;;;;-1.84;100.00;102562.25;4973493;28;20093;-86
2024/01/20 01:17:24;;;;;;;28.83;10.23;;;;;;;-1.79;100.00;102571.03;4973866;28;20483;-86
2024/01/20 01:19:50;;;;;;;28.87;11.07;;;;;;;-1.83;100.00;102564.00;4954271;28;20082;-86
2024/01/20 01:22:15;;;;;;;31.60;10.67;;;;;;;-1.84;100.00;102562.25;4989368;28;20501;-86
2024/01/20 01:24:41;;;;;;;30.73;10.20;;;;;;;-1.85;100.00;102565.59;4990302;28;20029;-86
2024/01/20 01:27:09;;;;;;;30.97;10.87;;;;;;;-1.86;100.00;102558.75;4990324;28;20018;-86
2024/01/20 01:29:35;;;;;;;29.57;10.23;;;;;;;-1.86;100.00;102563.84;4988334;28;20027;-86
2024/01/20 01:32:07;;;;;;;27.30;9.67;;;;;;;-1.88;100.00;102570.56;4987527;28;20517;-85
2024/01/20 01:34:35;;;;;;;26.03;10.03;;;;;;;-1.87;100.00;102575.75;4973255;28;20030;-87
2024/01/20 01:37:00;;;;;;;27.97;10.27;;;;;;;-1.85;100.00;102575.81;4989665;28;20586;-86
2024/01/20 01:39:25;;;;;;;27.57;9.90;;;;;;;-1.86;100.00;102579.16;4983834;28;20054;-86
2024/01/20 01:41:50;;;;;;;26.53;9.77;;;;;;;-1.86;100.00;102582.59;4985000;28;20156;-86
2024/01/20 01:44:16;;;;;;;28.97;10.23;;;;;;;-1.84;100.00;102577.56;4985657;28;20083;-86
2024/01/20 01:46:42;;;;;;;28.57;11.00;;;;;;;-1.84;100.00;102588.66;4970457;28;20024;-86
2024/01/20 01:49:07;;;;;;;28.57;10.60;;;;;;;-1.84;100.00;102592.88;4981977;28;20028;-86
2024/01/20 01:51:33;;;;;;;28.00;10.03;;;;;;;-1.84;100.00;102595.41;4986830;28;20097;-86
2024/01/20 01:54:00;;;;;;;26.30;10.70;;;;;;;-1.86;100.00;102595.34;4983162;28;20041;-86
2024/01/20 01:56:26;;;;;;;28.00;9.53;;;;;;;-1.87;100.00;102601.25;4982644;28;20026;-86
2024/01/20 01:58:52;;;;;;;26.80;9.27;;;;;;;-1.88;100.00;102601.19;4986446;28;20026;-87
2024/01/20 02:01:17;;;;;;;24.80;9.17;;;;;;;-1.88;100.00;102606.28;4982190;28;20022;-86
2024/01/20 02:03:43;;;;;;;26.87;9.23;;;;;;;-1.87;100.00;102613.09;4985849;28;20627;-86
2024/01/20 02:06:08;;;;;;;26.77;9.60;;;;;;;-1.88;100.00;102617.34;4988606;28;20038;-86
2024/01/20 02:08:40;;;;;;;26.50;9.20;;;;;;;-1.85;100.00;102622.63;4978637;28;20054;-85
2024/01/20 02:11:07;;;;;;;25.67;8.93;;;;;;;-1.85;100.00;102620.06;4970437;28;20066;-86
2024/01/20 02:13:33;;;;;;;28.97;10.33;;;;;;;-1.84;100.00;102623.47;4960556;28;20057;-86
2024/01/20 02:15:59;;;;;;;25.97;9.87;;;;;;;-1.87;100.00;102621.66;4970366;28;20102;-86
2024/01/20 02:18:24;;;;;;;26.73;10.60;;;;;;;-1.85;100.00;102626.81;4980513;28;20038;-85
2024/01/20 02:20:50;;;;;;;27.47;10.27;;;;;;;-1.86;100.00;102627.63;4971985;28;20458;-85
2024/01/20 02:23:15;;;;;;;30.97;10.33;;;;;;;-1.86;100.00;102630.16;4976295;28;20037;-86
2024/01/20 02:25:41;;;;;;;29.00;10.87;;;;;;;-1.87;100.00;102625.88;4956536;28;21380;-86
2024/01/20 02:28:06;;;;;;;27.73;10.03;;;;;;;-1.86;100.00;102632.72;4975805;28;20038;-86
2024/01/20 02:30:32;;;;;;;24.00;9.50;;;;;;;-1.85;100.00;102631.94;4972688;28;20061;-86
2024/01/20 02:32:57;;;;;;;25.73;9.67;;;;;;;-1.86;100.00;102630.16;4975856;28;20039;-86
2024/01/20 02:35:22;;;;;;;27.40;9.23;;;;;;;-1.87;100.00;102630.97;4973982;28;20113;-86
2024/01/20 02:37:48;;;;;;;25.73;9.47;;;;;;;-1.89;100.00;102630.03;4983492;28;20030;-86
2024/01/20 02:40:13;;;;;;;23.90;9.63;;;;;;;-1.88;100.00;102635.19;4977765;28;20026;-86
2024/01/20 02:42:38;;;;;;;30.57;10.37;;;;;;;-1.87;100.00;102628.41;4966223;28;20031;-85
2024/01/20 02:45:04;;;;;;;31.90;10.97;;;;;;;-1.87;100.00;102628.41;4964012;28;20034;-86
2024/01/20 02:47:30;;;;;;;28.23;10.47;;;;;;;-1.89;100.00;102619.81;4971441;28;20527;-86
2024/01/20 02:49:55;;;;;;;23.67;8.87;;;;;;;-1.93;100.00;102618.75;4976091;28;20061;-86
2024/01/20 02:52:20;;;;;;;26.90;10.90;;;;;;;-1.93;100.00;102623.00;4958155;28;20046;-86
2024/01/20 02:54:46;;;;;;;27.47;9.90;;;;;;;-1.95;100.00;102622.91;4958734;28;20031;-85
2024/01/20 02:57:11;;;;;;;28.40;10.20;;;;;;;-1.98;100.00;102628.72;4975260;28;20035;-86
2024/01/20 02:59:36;;;;;;;24.67;9.70;;;;;;;-1.99;100.00;102629.50;4980117;28;20104;-86
2024/01/20 03:02:02;;;;;;;30.73;10.60;;;;;;;-1.99;100.00;102623.53;4976342;28;20034;-86
2024/01/20 03:04:27;;;;;;;27.23;10.13;;;;;;;-2.04;100.00;102625.81;4979160;28;20057;-87
2024/01/20 03:06:53;;;;;;;25.13;9.50;;;;;;;-2.05;100.00;102623.19;4978706;28;20058;-86
2024/01/20 03:09:18;;;;;;;28.77;9.90;;;;;;;-2.05;100.00;102636.81;4972561;28;20077;-86
2024/01/20 03:11:44;;;;;;;28.53;10.20;;;;;;;-2.06;100.00;102624.88;4976326;28;20081;-86
2024/01/20 03:14:10;;;;;;;28.73;10.73;;;;;;;-2.06;100.00;102637.63;4961156;28;20035;-86
2024/01/20 03:16:35;;;;;;;26.77;9.67;;;;;;;-2.05;100.00;102641.06;4971644;28;20026;-87
2024/01/20 03:19:00;;;;;;;24.10;9.57;;;;;;;-2.06;100.00;102637.63;4971049;28;20046;-86
2024/01/20 03:21:26;;;;;;;26.27;10.50;;;;;;;-2.06;100.00;102637.63;4969681;28;20692;-85
2024/01/20 03:23:53;;;;;;;27.97;10.67;;;;;;;-2.03;100.00;102644.56;4976098;28;20033;-86
2024/01/20 03:26:19;;;;;;;26.20;10.57;;;;;;;-2.05;100.00;102647.00;4974449;28;20030;-86
2024/01/20 03:28:45;;;;;;;23.40;9.80;;;;;;;-2.06;100.00;102647.84;4970076;28;20027;-86
2024/01/20 03:31:10;;;;;;;26.47;9.13;;;;;;;-2.05;100.00;102649.56;4974902;28;20144;-86
2024/01/20 03:33:35;;;;;;;26.73;9.13;;;;;;;-2.04;100.00;102646.22;4974372;28;20042;-86
2024/01/20 03:36:01;;;;;;;23.27;8.77;;;;;;;-2.02;100.00;102649.75;4974170;28;21401;-86
2024/01/20 03:38:26;;;;;;;22.93;9.37;;;;;;;-1.99;100.00;102644.81;4974881;28;20496;-86
2024/01/20 03:40:51;;;;;;;25.23;9.07;;;;;;;-1.96;100.00;102648.34;4972250;28;20038;-86
2024/01/20 03:43:17;;;;;;;24.73;9.90;;;;;;;-1.96;100.00;102638.13;4974921;28;20062;-86
2024/01/20 03:45:43;;;;;;;23.13;9.23;;;;;;;-1.95;100.00;102652.63;4980361;28;20031;-85
2024/01/20 03:48:09;;;;;;;22.27;9.53;;;;;;;-1.94;100.00;102656.94;4981723;28;20109;-86
2024/01/20 03:50:34;;;;;;;26.40;10.00;;;;;;;-1.94;100.00;102647.59;4969055;28;20023;-86
2024/01/20 03:53:00;;;;;;;24.27;9.80;;;;;;;-1.92;100.00;102657.91;4967350;28;20034;-86
2024/01/20 03:55:25;;;;;;;22.63;8.63;;;;;;;-1.88;100.00;102652.19;4968599;28;20082;-86
2024/01/20 03:57:51;;;;;;;26.50;10.37;;;;;;;-1.87;100.00;102654.81;4971415;28;20057;-86
2024/01/20 04:00:16;;;;;;;24.40;9.40;;;;;;;-1.87;100.00;102646.28;4968458;28;20134;-86
2024/01/20 04:02:42;;;;;;;26.00;10.57;;;;;;;-1.84;100.00;102649.00;4975793;28;20030;-86
2024/01/20 04:05:07;;;;;;;26.20;9.97;;;;;;;-1.85;100.00;102653.22;4956093;28;20019;-87
2024/01/20 04:07:33;;;;;;;24.97;9.57;;;;;;;-1.85;100.00;102645.59;4974899;28;20535;-86
2024/01/20 04:09:58;;;;;;;23.77;8.83;;;;;;;-1.85;100.00;102637.03;4969887;28;20447;-86
2024/01/20 04:12:24;;;;;;;23.03;10.03;;;;;;;-1.84;100.00;102638.78;4969251;28;20033;-86
2024/01/20 04:14:49;;;;;;;21.07;9.17;;;;;;;-1.86;100.00;102648.03;4971844;28;20025;-86
2024/01/20 04:17:15;;;;;;;22.63;9.20;;;;;;;-1.87;100.00;102649.72;4973197;28;20047;-86
2024/01/20 04:19:40;;;;;;;20.87;8.57;;;;;;;-1.88;100.00;102647.09;4958561;28;20026;-86
2024/01/20 04:22:06;;;;;;;20.93;8.60;;;;;;;-1.88;100.00;102653.06;4974675;28;20377;-86
2024/01/20 04:24:31;;;;;;;19.97;8.40;;;;;;;-1.87;100.00;102659.03;4982259;28;20556;-86
2024/01/20 04:26:56;;;;;;;21.80;8.37;;;;;;;-1.85;100.00;102652.34;4974057;28;20085;-86
2024/01/20 04:29:22;;;;;;;23.50;8.97;;;;;;;-1.84;100.00;102659.19;4983520;28;20100;-86
2024/01/20 04:31:47;;;;;;;24.50;9.17;;;;;;;-1.86;100.00;102656.56;4986355;28;20058;-86
2024/01/20 04:34:12;;;;;;;22.30;8.67;;;;;;;-1.87;100.00;102661.56;4985667;28;20114;-86
2024/01/20 04:36:37;;;;;;;22.83;9.33;;;;;;;-1.88;100.00;102668.38;4981243;28;20089;-86
2024/01/20 04:39:03;;;;;;;20.53;8.27;;;;;;;-1.90;100.00;102669.94;4977690;28;20105;-86
2024/01/20 04:41:28;;;;;;;24.13;8.80;;;;;;;-1.90;100.00;102671.63;4975421;28;20508;-86
2024/01/20 04:43:53;;;;;;;22.10;8.50;;;;;;;-1.90;100.00;102679.28;4959505;28;20528;-85
2024/01/20 04:46:19;;;;;;;21.83;8.87;;;;;;;-1.89;100.00;102681.06;4976106;28;20719;-85
2024/01/20 04:48:44;;;;;;;22.63;8.90;;;;;;;-1.87;100.00;102676.88;4976821;28;20101;-86
2024/01/20 04:51:10;;;;;;;23.97;10.30;;;;;;;-1.87;100.00;102674.34;4972419;28;20030;-85
2024/01/20 04:53:35;;;;;;;24.30;9.57;;;;;;;-1.86;100.00;102681.19;4978976;28;20030;-86
2024/01/20 04:56:07;;;;;;;23.73;9.07;;;;;;;-1.88;100.00;102682.81;4972242;28;20085;-86
2024/01/20 04:58:32;;;;;;;24.73;9.10;;;;;;;-1.85;100.00;102680.41;4983830;28;20587;-85
2024/01/20 05:00:58;;;;;;;22.07;9.23;;;;;;;-1.87;100.00;102684.53;4983611;28;20162;-86
2024/01/20 05:03:23;;;;;;;24.70;9.73;;;;;;;-1.89;100.00;102679.38;4972445;28;20117;-86
2024/01/20 05:05:48;;;;;;;20.53;8.60;;;;;;;-1.91;100.00;102687.75;4973032;28;20035;-85
2024/01/20 05:08:14;;;;;;;23.03;8.67;;;;;;;-1.91;100.00;102686.06;4976164;28;20034;-85
2024/01/20 05:10:39;;;;;;;23.87;9.47;;;;;;;-1.92;100.00;102681.75;4963283;28;20026;-85
2024/01/20 05:13:04;;;;;;;22.93;9.10;;;;;;;-1.92;100.00;102681.75;4978452;28;20054;-85
2024/01/20 05:15:30;;;;;;;22.50;9.60;;;;;;;-1.94;100.00;102683.31;4974487;28;20062;-85
2024/01/20 05:17:57;;;;;;;24.27;9.77;;;;;;;-1.93;100.00;102690.19;4977714;28;20027;-85
2024/01/20 05:20:22;;;;;;;26.97;10.17;;;;;;;-1.95;100.00;102696.00;4972840;28;20034;-85
2024/01/20 05:22:48;;;;;;;24.57;9.00;;;;;;;-1.94;100.00;102703.72;4973211;28;20027;-85
2024/01/20 05:25:14;;;;;;;25.13;9.43;;;;;;;-1.94;100.00;102697.75;4977732;28;20026;-85
2024/01/20 05:27:39;;;;;;;21.30;8.67;;;;;;;-1.98;100.00;102702.69;4982080;28;20031;-86
2024/01/20 05:30:05;;;;;;;21.53;8.70;;;;;;;-1.99;100.00;102710.25;4964418;28;20023;-85
2024/01/20 05:32:31;;;;;;;24.70;8.43;;;;;;;-1.98;100.00;102707.78;4978786;28;20065;-86
2024/01/20 05:34:56;;;;;;;22.03;8.37;;;;;;;-1.96;100.00;102712.97;4971344;28;20703;-85
2024/01/20 05:37:22;;;;;;;23.53;9.37;;;;;;;-1.94;100.00;102711.38;4974485;28;20432;-86
2024/01/20 05:39:47;;;;;;;21.83;8.67;;;;;;;-1.95;100.00;102703.66;4974779;28;20056;-86
2024/01/20 05:42:12;;;;;;;19.67;8.73;;;;;;;-1.95;100.00;102713.84;4981437;28;20022;-86
2024/01/20 05:44:39;;;;;;;21.40;8.83;;;;;;;-1.93;100.00;102719.94;4976875;28;20027;-87
2024/01/20 05:47:04;;;;;;;21.90;8.63;;;;;;;-1.93;100.00;102710.59;4973457;28;20023;-86
2024/01/20 05:49:30;;;;;;;21.90;8.73;;;;;;;-1.96;100.00;102710.41;4983119;28;20407;-86
2024/01/20 05:51:55;;;;;;;21.90;9.10;;;;;;;-1.96;100.00;102712.97;4970957;28;20093;-86
2024/01/20 05:54:20;;;;;;;24.20;9.37;;;;;;;-1.98;100.00;102715.44;4972490;28;20029;-87
2024/01/20 05:56:46;;;;;;;23.83;9.60;;;;;;;-1.98;100.00;102712.03;4974505;28;20061;-87
2024/01/20 05:59:11;;;;;;;22.27;9.20;;;;;;;-1.98;100.00;102718.00;4975617;28;20050;-86
2024/01/20 06:01:36;;;;;;;23.00;9.13;;;;;;;-1.99;100.00;102711.13;4982096;28;20050;-86
2024/01/20 06:04:04;;;;;;;21.33;8.03;;;;;;;-2.01;100.00;102720.38;4981931;28;20392;-86
2024/01/20 06:06:29;;;;;;;22.23;8.57;;;;;;;-2.02;100.00;102721.16;4965714;28;20166;-86
2024/01/20 06:08:55;;;;;;;19.73;7.93;;;;;;;-2.00;100.00;102724.69;4974378;28;20504;-86
2024/01/20 06:11:22;;;;;;;19.37;7.37;;;;;;;-2.00;100.00;102722.13;4974935;28;20109;-86
2024/01/20 06:13:47;;;;;;;22.07;8.63;;;;;;;-1.98;100.00;102722.22;4973254;28;20030;-86
2024/01/20 06:16:13;;;;;;;21.33;8.63;;;;;;;-1.99;100.00;102731.53;4982122;28;20105;-86
2024/01/20 06:18:38;;;;;;;18.87;8.30;;;;;;;-1.98;100.00;102740.94;4971656;28;20448;-86
2024/01/20 06:21:04;;;;;;;22.83;8.67;;;;;;;-1.98;100.00;102735.84;4974141;28;20081;-85
2024/01/20 06:23:29;;;;;;;22.53;9.27;;;;;;;-1.96;100.00;102735.06;4975564;28;20026;-85
2024/01/20 06:25:55;;;;;;;23.57;9.07;;;;;;;-1.96;100.00;102732.50;4970429;28;20073;-85
2024/01/20 06:28:21;;;;;;;20.07;8.87;;;;;;;-1.94;100.00;102726.69;4974649;28;20035;-85
2024/01/20 06:30:49;;;;;;;23.67;9.70;;;;;;;-1.94;100.00;102734.34;4970405;28;20460;-85
2024/01/20 06:33:15;;;;;;;23.43;9.67;;;;;;;-1.98;100.00;102733.28;4973997;28;20097;-86
2024/01/20 06:35:40;;;;;;;25.53;10.20;;;;;;;-1.96;100.00;102740.16;4976986;28;20483;-85
2024/01/20 06:38:06;;;;;;;21.20;8.47;;;;;;;-2.01;100.00;102743.31;4978471;28;20019;-85
2024/01/20 06:40:31;;;;;;;17.73;8.23;;;;;;;-2.02;100.00;102739.00;4971614;28;20043;-85
2024/01/20 06:42:57;;;;;;;21.57;9.20;;;;;;;-2.03;100.00;102749.13;4972839;28;20497;-87
2024/01/20 06:45:22;;;;;;;23.77;9.57;;;;;;;-2.05;100.00;102743.06;4972974;28;20038;-85
2024/01/20 06:47:47;;;;;;;24.53;8.97;;;;;;;-2.04;100.00;102742.28;4968618;28;20074;-85
2024/01/20 06:50:13;;;;;;;23.80;9.87;;;;;;;-2.05;100.00;102746.47;4970574;28;20037;-85
2024/01/20 06:52:38;;;;;;;24.53;9.17;;;;;;;-2.03;100.00;102751.69;4978238;28;20172;-85
2024/01/20 06:55:05;;;;;;;22.73;8.83;;;;;;;-1.99;100.00;102751.94;4973231;28;20555;-85
2024/01/20 06:57:30;;;;;;;22.77;9.57;;;;;;;-1.98;100.00;102755.38;4976327;28;20128;-86
2024/01/20 06:59:56;;;;;;;23.70;9.57;;;;;;;-1.99;100.00;102757.03;4971520;28;20056;-85
2024/01/20 07:02:21;;;;;;;21.67;9.77;;;;;;;-2.00;100.00;102757.81;4976218;28;20038;-85
2024/01/20 07:04:46;;;;;;;22.83;8.97;;;;;;;-2.02;100.00;102761.97;4972060;28;20022;-85
2024/01/20 07:07:12;;;;;;;23.87;9.63;;;;;;;-2.01;100.00;102758.63;4954459;28;20447;-86
2024/01/20 07:09:39;;;;;;;22.80;9.20;;;;;;;-2.01;100.00;102757.75;4979221;28;20488;-86
2024/01/20 07:12:05;;;;;;;20.40;8.57;;;;;;;-2.01;100.00;102763.72;4971834;28;20042;-86
2024/01/20 07:14:31;;;;;;;22.77;9.90;;;;;;;-2.01;100.00;102753.53;4970208;28;20019;-86
2024/01/20 07:16:56;;;;;;;22.80;9.57;;;;;;;-2.01;100.00;102762.84;4971939;28;20038;-85
2024/01/20 07:19:21;;;;;;;23.40;9.70;;;;;;;-2.04;100.00;102763.53;4971290;28;20030;-85
2024/01/20 07:21:47;;;;;;;27.80;10.63;;;;;;;-2.05;100.00;102766.88;4970952;28;20502;-85
2024/01/20 07:24:12;;;;;;;23.47;9.77;;;;;;;-2.04;100.00;102770.31;4975859;28;20038;-85
2024/01/20 07:26:38;;;;;;;23.20;9.60;;;;;;;-2.05;100.00;102768.56;4970700;28;20042;-85
2024/01/20 07:29:03;;;;;;;24.93;9.97;;;;;;;-2.05;100.00;102769.44;4979750;28;20030;-85
2024/01/20 07:31:28;;;;;;;25.03;10.43;;;;;;;-2.05;100.00;102760.91;4979139;28;20028;-85
2024/01/20 07:33:54;;;;;;;23.40;9.63;;;;;;;-2.05;100.00;102771.97;4976500;28;20030;-86
2024/01/20 07:36:19;;;;;;;22.33;9.00;;;;;;;-2.06;100.00;102762.59;4960820;28;20046;-86
2024/01/20 07:38:44;;;;;;;20.90;8.90;;;;;;;-2.05;100.00;102768.56;4974003;28;20369;-85
2024/01/20 07:41:10;;;;;;;23.30;9.70;;;;;;;-2.07;100.00;102772.69;4968919;28;20024;-86
2024/01/20 07:43:35;;;;;;;25.43;9.77;;;;;;;-2.07;100.00;102776.16;4974352;28;20391;-85
2024/01/20 07:46:00;;;;;;;26.40;10.23;;;;;;;-2.08;100.00;102776.94;4972882;28;20026;-86
2024/01/20 07:48:27;;;;;;;24.23;9.50;;;;;;;-2.09;100.00;102762.41;4957114;28;20381;-85
2024/01/20 07:50:53;;;;;;;23.00;9.73;;;;;;;-2.10;100.00;102770.84;4979459;28;20031;-86
2024/01/20 07:53:18;;;;;;;26.23;10.63;;;;;;;-2.12;100.00;102769.88;4974939;28;20084;-85
2024/01/20 07:55:44;;;;;;;24.23;9.73;;;;;;;-2.13;100.00;102779.19;4980411;28;20429;-86
2024/01/20 07:58:09;;;;;;;23.07;9.17;;;;;;;-2.11;100.00;102786.94;4976942;28;20097;-85
2024/01/20 08:00:34;;;;;;;22.50;9.63;;;;;;;-2.09;100.00;102784.47;4980959;28;20050;-85
2024/01/20 08:03:00;;;;;;;24.93;10.60;;;;;;;-2.08;100.00;102792.22;4970858;28;20030;-86
2024/01/20 08:05:25;;;;;;;24.43;8.73;;;;;;;-2.09;100.00;102798.13;4977953;28;20050;-85
2024/01/20 08:07:50;;;;;;;21.83;9.30;;;;;;;-2.07;100.00;102806.75;4988939;28;20472;-86
2024/01/20 08:10:16;;;;;;;22.40;9.17;;;;;;;-2.08;100.00;102789.69;4972859;28;20117;-86
2024/01/20 08:12:44;;;;;;;21.80;9.70;;;;;;;-2.10;100.00;102792.91;4985636;28;20049;-85
2024/01/20 08:15:10;;;;;;;23.87;10.50;;;;;;;-2.10;100.00;102780.16;4987134;28;20105;-85
2024/01/20 08:17:35;;;;;;;24.57;9.47;;;;;;;-2.08;100.00;102788.78;4989225;28;20113;-86
2024/01/20 08:20:00;;;;;;;27.47;10.37;;;;;;;-2.06;100.00;102790.66;4986534;28;20420;-85
2024/01/20 08:22:26;;;;;;;26.13;9.67;;;;;;;-2.06;100.00;102790.66;4984122;28;20037;-85
2024/01/20 08:24:51;;;;;;;23.10;9.43;;;;;;;-2.06;100.00;102798.31;4987784;28;20656;-85
2024/01/20 08:27:18;;;;;;;24.37;10.07;;;;;;;-2.04;100.00;102798.38;4989957;28;20101;-86
2024/01/20 08:29:43;;;;;;;25.30;9.80;;;;;;;-2.02;100.00;102812.09;4986614;28;20041;-86
2024/01/20 08:32:08;;;;;;;23.60;9.83;;;;;;;-1.99;100.00;102805.50;4970568;28;20030;-85
2024/01/20 08:34:34;;;;;;;26.00;10.20;;;;;;;-1.95;100.00;102805.69;4989683;28;20046;-85
2024/01/20 08:36:59;;;;;;;25.47;10.63;;;;;;;-1.92;100.00;102808.41;4985848;28;20062;-85
2024/01/20 08:39:27;;;;;;;24.70;10.50;;;;;;;-1.88;100.00;102807.81;4970828;28;20483;-86
2024/01/20 08:41:52;;;;;;;23.27;9.60;;;;;;;-1.93;100.00;102811.75;4984510;28;20511;-85
2024/01/20 08:44:18;;;;;;;24.03;9.70;;;;;;;-1.92;100.00;102818.63;4986075;28;20035;-85
2024/01/20 08:46:45;;;;;;;25.33;9.90;;;;;;;-1.90;100.00;102819.59;4987628;28;20391;-85
2024/01/20 08:49:10;;;;;;;25.77;10.13;;;;;;;-1.90;100.00;102817.03;4989339;28;20476;-86
2024/01/20 08:51:36;;;;;;;23.63;10.30;;;;;;;-1.86;100.00;102824.97;4980766;28;20023;-85
2024/01/20 08:54:01;;;;;;;24.97;10.43;;;;;;;-1.83;100.00;102829.34;4991483;28;20022;-85
2024/01/20 08:56:26;;;;;;;27.93;10.63;;;;;;;-1.79;100.00;102823.63;4985752;28;20041;-85
2024/01/20 08:58:52;;;;;;;26.23;10.57;;;;;;;-1.77;100.00;102819.50;4987599;28;20121;-86
2024/01/20 09:01:17;;;;;;;26.30;10.80;;;;;;;-1.75;100.00;102829.78;4982651;28;20519;-86
2024/01/20 09:03:42;;;;;;;22.13;9.23;;;;;;;-1.77;100.00;102829.72;4970714;28;20033;-85
2024/01/20 09:06:11;;;;;;;27.13;11.10;;;;;;;-1.74;100.00;102836.66;4988841;28;20066;-85
2024/01/20 09:08:36;;;;;;;22.57;9.33;;;;;;;-1.76;100.00;102835.69;4985005;28;20117;-86
2024/01/20 09:11:02;;;;;;;25.27;10.37;;;;;;;-1.76;100.00;102825.47;4982398;28;20487;-86
2024/01/20 09:13:27;;;;;;;23.33;9.77;;;;;;;-1.76;100.00;102839.13;4991166;28;20037;-85
2024/01/20 09:15:53;;;;;;;25.53;9.63;;;;;;;-1.74;100.00;102824.78;4984212;28;20110;-86
2024/01/20 09:18:18;;;;;;;23.10;9.50;;;;;;;-1.73;100.00;102838.41;4984115;28;20106;-85
2024/01/20 09:20:43;;;;;;;28.00;9.97;;;;;;;-1.71;100.00;102837.69;4985905;28;20431;-85
2024/01/20 09:23:09;;;;;;;29.30;11.10;;;;;;;-1.70;100.00;102842.00;4984838;28;20018;-87
2024/01/20 09:25:34;;;;;;;28.93;10.87;;;;;;;-1.69;100.00;102843.78;4984556;28;20026;-88
2024/01/20 09:28:04;;;;;;;27.20;11.10;;;;;;;-1.70;100.00;102842.00;4979490;28;20049;-86
2024/01/20 09:30:29;;;;;;;34.07;13.10;;;;;;;-1.73;100.00;102839.31;4967045;28;20363;-86
2024/01/20 09:32:55;;;;;;;32.07;12.23;;;;;;;-1.74;100.00;102837.53;4980487;28;20019;-86
2024/01/20 09:35:20;;;;;;;33.60;12.80;;;;;;;-1.73;100.00;102836.75;4969023;28;20014;-86
2024/01/20 09:37:45;;;;;;;33.37;12.23;;;;;;;-1.71;100.00;102844.47;4977792;28;20112;-86
2024/01/20 09:40:11;;;;;;;29.47;12.13;;;;;;;-1.71;100.00;102840.25;4984717;28;20396;-86
2024/01/20 09:42:37;;;;;;;27.90;11.50;;;;;;;-1.66;100.00;102847.28;4983236;28;20479;-86
2024/01/20 09:45:02;;;;;;;25.57;10.67;;;;;;;-1.61;100.00;102845.91;4983639;28;20511;-86
2024/01/20 09:47:28;;;;;;;30.23;11.50;;;;;;;-1.58;100.00;102846.94;4984533;28;20018;-87
2024/01/20 09:49:53;;;;;;;30.47;11.97;;;;;;;-1.53;100.00;102844.63;4981394;28;20488;-86
2024/01/20 09:52:26;;;;;;;25.93;10.27;;;;;;;-1.49;100.00;102850.81;4985637;28;20475;-86
2024/01/20 09:54:57;;;;;;;30.20;11.90;;;;;;;-1.50;100.00;102855.03;4983492;28;20084;-86
2024/01/20 09:57:23;;;;;;;28.10;11.85;;;;;;;-1.51;100.00;102855.81;4984506;28;20027;-86
2024/01/20 09:59:51;;;;;;;30.17;12.60;;;;;;;-1.48;100.00;102858.56;4981841;28;20043;-86
2024/01/20 10:02:18;;;;;;;33.67;13.80;;;;;;;-1.49;100.00;102861.91;4982398;28;20038;-86
2024/01/20 10:04:46;;;;;;;31.43;13.13;;;;;;;-1.46;100.00;102862.06;4984147;28;20056;-86
2024/01/20 10:07:28;;;;;;;29.17;11.67;;;;;;;-1.43;100.00;102871.56;4986386;28;20100;-86
2024/01/20 10:09:54;;;;;;;33.00;13.85;;;;;;;-1.38;100.00;102865.06;4982800;28;20032;-86
2024/01/20 10:12:19;;;;;;;37.07;13.33;;;;;;;-1.38;100.00;102855.75;4983822;28;20153;-87
2024/01/20 10:14:47;;;;;;;32.80;12.53;;;;;;;-1.38;100.00;102855.75;4982635;28;20030;-86
2024/01/20 10:17:13;;;;;;;34.93;13.43;;;;;;;-1.42;100.00;102856.34;4967630;28;20033;-86
2024/01/20 10:19:38;;;;;;;31.83;12.53;;;;;;;-1.39;100.00;102864.19;4975410;28;20027;-86
2024/01/20 10:22:11;;;;;;;29.77;12.50;;;;;;;-1.38;100.00;102867.63;4984310;28;20077;-86
2024/01/20 10:25:06;;;;;;;32.30;13.03;;;;;;;-1.38;100.00;102865.97;4963584;28;20380;-86
2024/01/20 10:27:31;;;;;;;31.77;12.43;;;;;;;-1.38;100.00;102870.16;4965289;28;20616;-88
2024/01/20 10:29:56;;;;;;;34.83;13.13;;;;;;;-1.42;100.00;102869.13;4979705;28;20146;-87
2024/01/20 10:32:21;;;;;;;28.70;11.77;;;;;;;-1.37;100.00;102871.94;4977872;28;20105;-87
2024/01/20 10:34:47;;;;;;;30.93;12.77;;;;;;;-1.33;100.00;102878.06;4981034;28;20110;-86
2024/01/20 10:37:13;;;;;;;30.37;11.63;;;;;;;-1.27;100.00;102883.53;4980951;28;20045;-86
2024/01/20 10:39:44;;;;;;;31.77;12.57;;;;;;;-1.24;100.00;102876.06;4985030;28;20081;-87
2024/01/20 10:42:14;;;;;;;29.77;12.37;;;;;;;-1.19;100.00;102873.75;4981077;28;20113;-88
2024/01/20 10:44:55;;;;;;;30.93;11.60;;;;;;;-1.16;100.00;102862.03;4979336;28;20105;-86
2024/01/20 10:47:37;;;;;;;28.67;11.60;;;;;;;-1.15;100.00;102862.91;4985378;28;20019;-85
2024/01/20 10:50:07;;;;;;;33.63;13.37;;;;;;;-1.12;100.00;102863.09;4983462;28;20038;-85
2024/01/20 10:52:34;;;;;;;33.73;13.20;;;;;;;-1.08;100.00;102863.34;4980463;28;20096;-86
2024/01/20 10:55:04;;;;;;;33.20;13.13;;;;;;;-1.06;100.00;102863.41;4986952;28;20030;-85
2024/01/20 10:57:30;;;;;;;35.23;13.17;;;;;;;-1.05;100.00;102859.19;4986844;28;20050;-86
2024/01/20 10:59:57;;;;;;;30.33;12.20;;;;;;;-1.07;100.00;102867.66;4986385;28;20049;-86